sensor_id;sensor_type;location;lat;lon;timestamp;temperature;humidity
66184;DHT22;52989;48.796;9.806;2022-11-15T00:01:44;10.20;99.90
66184;DHT22;52989;48.796;9.806;2022-11-15T00:04:09;10.20;99.90
66184;DHT22;52989;48.796;9.806;2022-11-15T00:06:35;10.10;99.90
66184;DHT22;52989;48.796;9.806;2022-11-15T00:09:01;10.10;99.90
66184;DHT22;52989;48.796;9.806;2022-11-15T00:11:26;10.20;99.90
66184;DHT22;52989;48.796;9.806;2022-11-15T00:13:55;10.20;99.90
66184;DHT22;52989;48.796;9.806;2022-11-15T00:16:21;10.20;99.90
66184;DHT22;52989;48.796;9.806;2022-11-15T00:18:46;10.30;99.90
66184;DHT22;52989;48.796;9.806;2022-11-15T00:21:12;10.30;99.90
66184;DHT22;52989;48.796;9.806;2022-11-15T00:23:38;10.30;99.90
66184;DHT22;52989;48.796;9.806;2022-11-15T00:26:04;10.30;99.90
66184;DHT22;52989;48.796;9.806;2022-11-15T00:28:29;10.30;99.90
66184;DHT22;52989;48.796;9.806;2022-11-15T00:31:04;10.20;99.90
66184;DHT22;52989;48.796;9.806;2022-11-15T00:33:30;10.10;99.90
66184;DHT22;52989;48.796;9.806;2022-11-15T00:35:59;10.50;99.90
66184;DHT22;52989;48.796;9.806;2022-11-15T00:38:25;10.50;99.90
66184;DHT22;52989;48.796;9.806;2022-11-15T00:40:51;10.40;99.90
66184;DHT22;52989;48.796;9.806;2022-11-15T00:43:16;10.30;99.90
66184;DHT22;52989;48.796;9.806;2022-11-15T00:45:41;10.30;99.90
66184;DHT22;52989;48.796;9.806;2022-11-15T00:48:08;10.20;99.90
66184;DHT22;52989;48.796;9.806;2022-11-15T00:50:34;10.10;99.90
66184;DHT22;52989;48.796;9.806;2022-11-15T00:52:59;9.90;99.90
66184;DHT22;52989;48.796;9.806;2022-11-15T00:55:24;9.70;99.90
66184;DHT22;52989;48.796;9.806;2022-11-15T00:57:50;9.70;99.90
66184;DHT22;52989;48.796;9.806;2022-11-15T01:00:15;9.70;99.90
66184;DHT22;52989;48.796;9.806;2022-11-15T01:02:41;9.70;99.90
66184;DHT22;52989;48.796;9.806;2022-11-15T01:05:07;9.60;99.90
66184;DHT22;52989;48.796;9.806;2022-11-15T01:07:33;9.70;99.90
66184;DHT22;52989;48.796;9.806;2022-11-15T01:09:58;9.90;99.90
66184;DHT22;52989;48.796;9.806;2022-11-15T01:12:24;9.70;99.90
66184;DHT22;52989;48.796;9.806;2022-11-15T01:14:49;9.90;99.90
66184;DHT22;52989;48.796;9.806;2022-11-15T01:17:14;9.90;99.90
66184;DHT22;52989;48.796;9.806;2022-11-15T01:19:40;9.80;99.90
66184;DHT22;52989;48.796;9.806;2022-11-15T01:22:05;9.80;99.90
66184;DHT22;52989;48.796;9.806;2022-11-15T01:24:31;9.60;99.90
66184;DHT22;52989;48.796;9.806;2022-11-15T01:26:57;9.30;99.90
66184;DHT22;52989;48.796;9.806;2022-11-15T01:29:22;9.20;99.90
66184;DHT22;52989;48.796;9.806;2022-11-15T01:31:47;9.30;99.90
66184;DHT22;52989;48.796;9.806;2022-11-15T01:34:13;9.00;99.90
66184;DHT22;52989;48.796;9.806;2022-11-15T01:36:40;9.60;99.90
66184;DHT22;52989;48.796;9.806;2022-11-15T01:39:05;9.80;99.90
66184;DHT22;52989;48.796;9.806;2022-11-15T01:41:32;9.60;99.90
66184;DHT22;52989;48.796;9.806;2022-11-15T01:44:30;9.10;99.90
66184;DHT22;52989;48.796;9.806;2022-11-15T01:46:44;8.90;99.90
66184;DHT22;52989;48.796;9.806;2022-11-15T01:49:13;8.60;99.90
66184;DHT22;52989;48.796;9.806;2022-11-15T01:51:39;8.70;99.90
66184;DHT22;52989;48.796;9.806;2022-11-15T01:54:06;9.40;99.90
66184;DHT22;52989;48.796;9.806;2022-11-15T01:56:36;9.40;99.90
66184;DHT22;52989;48.796;9.806;2022-11-15T01:59:03;9.00;99.90
66184;DHT22;52989;48.796;9.806;2022-11-15T02:01:30;8.70;99.90
66184;DHT22;52989;48.796;9.806;2022-11-15T02:03:57;8.40;99.90
66184;DHT22;52989;48.796;9.806;2022-11-15T02:06:24;8.20;99.90
66184;DHT22;52989;48.796;9.806;2022-11-15T02:08:49;8.20;99.90
66184;DHT22;52989;48.796;9.806;2022-11-15T02:11:15;8.00;99.90
66184;DHT22;52989;48.796;9.806;2022-11-15T02:13:41;8.00;99.90
66184;DHT22;52989;48.796;9.806;2022-11-15T02:18:47;8.00;99.90
66184;DHT22;52989;48.796;9.806;2022-11-15T02:22:00;8.00;99.90
66184;DHT22;52989;48.796;9.806;2022-11-15T02:24:07;7.90;99.90
66184;DHT22;52989;48.796;9.806;2022-11-15T02:29:09;7.80;99.90
66184;DHT22;52989;48.796;9.806;2022-11-15T02:31:38;7.70;99.90
66184;DHT22;52989;48.796;9.806;2022-11-15T02:34:10;7.70;99.90
66184;DHT22;52989;48.796;9.806;2022-11-15T02:39:46;7.40;99.90
66184;DHT22;52989;48.796;9.806;2022-11-15T02:44:19;7.60;99.90
66184;DHT22;52989;48.796;9.806;2022-11-15T02:49:32;7.30;99.90
66184;DHT22;52989;48.796;9.806;2022-11-15T02:51:58;7.50;99.90
66184;DHT22;52989;48.796;9.806;2022-11-15T02:54:25;7.50;99.90
66184;DHT22;52989;48.796;9.806;2022-11-15T02:56:52;7.60;99.90
66184;DHT22;52989;48.796;9.806;2022-11-15T03:04:16;7.70;99.90
66184;DHT22;52989;48.796;9.806;2022-11-15T03:06:51;7.60;99.90
66184;DHT22;52989;48.796;9.806;2022-11-15T03:09:33;7.40;99.90
66184;DHT22;52989;48.796;9.806;2022-11-15T03:12:03;7.40;99.90
66184;DHT22;52989;48.796;9.806;2022-11-15T03:14:36;7.30;99.90
66184;DHT22;52989;48.796;9.806;2022-11-15T03:17:16;7.10;99.90
66184;DHT22;52989;48.796;9.806;2022-11-15T03:19:53;7.00;99.90
66184;DHT22;52989;48.796;9.806;2022-11-15T03:22:20;6.90;99.90
66184;DHT22;52989;48.796;9.806;2022-11-15T03:24:47;6.90;99.90
66184;DHT22;52989;48.796;9.806;2022-11-15T03:27:13;6.80;99.90
66184;DHT22;52989;48.796;9.806;2022-11-15T03:29:42;6.80;99.90
66184;DHT22;52989;48.796;9.806;2022-11-15T03:32:13;6.80;99.90
66184;DHT22;52989;48.796;9.806;2022-11-15T03:34:46;6.80;99.90
66184;DHT22;52989;48.796;9.806;2022-11-15T03:37:13;6.70;99.90
66184;DHT22;52989;48.796;9.806;2022-11-15T03:39:39;6.90;99.90
66184;DHT22;52989;48.796;9.806;2022-11-15T03:44:41;7.30;99.90
66184;DHT22;52989;48.796;9.806;2022-11-15T03:47:16;7.20;99.90
66184;DHT22;52989;48.796;9.806;2022-11-15T03:49:48;7.10;99.90
66184;DHT22;52989;48.796;9.806;2022-11-15T03:52:17;7.20;99.90
66184;DHT22;52989;48.796;9.806;2022-11-15T03:54:53;7.20;99.90
66184;DHT22;52989;48.796;9.806;2022-11-15T03:57:19;7.10;99.90
66184;DHT22;52989;48.796;9.806;2022-11-15T03:59:44;7.10;99.90
66184;DHT22;52989;48.796;9.806;2022-11-15T04:02:10;7.00;99.90
66184;DHT22;52989;48.796;9.806;2022-11-15T04:04:35;7.00;99.90
66184;DHT22;52989;48.796;9.806;2022-11-15T04:07:01;6.90;99.90
66184;DHT22;52989;48.796;9.806;2022-11-15T04:09:26;6.90;99.90
66184;DHT22;52989;48.796;9.806;2022-11-15T04:11:52;6.90;99.90
66184;DHT22;52989;48.796;9.806;2022-11-15T04:14:17;6.90;99.90
66184;DHT22;52989;48.796;9.806;2022-11-15T04:16:42;6.80;99.90
66184;DHT22;52989;48.796;9.806;2022-11-15T04:19:08;6.70;99.90
66184;DHT22;52989;48.796;9.806;2022-11-15T04:21:52;6.70;99.90
66184;DHT22;52989;48.796;9.806;2022-11-15T04:24:36;6.70;99.90
66184;DHT22;52989;48.796;9.806;2022-11-15T04:27:01;6.80;99.90
66184;DHT22;52989;48.796;9.806;2022-11-15T04:29:27;7.00;99.90
66184;DHT22;52989;48.796;9.806;2022-11-15T04:32:05;6.90;99.90
66184;DHT22;52989;48.796;9.806;2022-11-15T04:34:31;7.00;99.90
66184;DHT22;52989;48.796;9.806;2022-11-15T04:36:56;6.90;99.90
66184;DHT22;52989;48.796;9.806;2022-11-15T04:39:37;6.90;99.90
66184;DHT22;52989;48.796;9.806;2022-11-15T04:42:02;7.40;99.90
66184;DHT22;52989;48.796;9.806;2022-11-15T04:44:28;7.50;99.90
66184;DHT22;52989;48.796;9.806;2022-11-15T04:46:53;7.20;99.90
66184;DHT22;52989;48.796;9.806;2022-11-15T04:49:19;7.20;99.90
66184;DHT22;52989;48.796;9.806;2022-11-15T04:51:44;7.20;99.90
66184;DHT22;52989;48.796;9.806;2022-11-15T04:54:10;7.30;99.90
66184;DHT22;52989;48.796;9.806;2022-11-15T04:56:35;7.40;99.90
66184;DHT22;52989;48.796;9.806;2022-11-15T04:59:00;8.10;99.90
66184;DHT22;52989;48.796;9.806;2022-11-15T05:01:26;8.00;99.90
66184;DHT22;52989;48.796;9.806;2022-11-15T05:03:51;7.50;99.90
66184;DHT22;52989;48.796;9.806;2022-11-15T05:06:35;7.20;99.90
66184;DHT22;52989;48.796;9.806;2022-11-15T05:09:01;7.10;99.90
66184;DHT22;52989;48.796;9.806;2022-11-15T05:11:27;7.30;99.90
66184;DHT22;52989;48.796;9.806;2022-11-15T05:13:53;7.20;99.90
66184;DHT22;52989;48.796;9.806;2022-11-15T05:16:19;7.20;99.90
66184;DHT22;52989;48.796;9.806;2022-11-15T05:18:44;7.20;99.90
66184;DHT22;52989;48.796;9.806;2022-11-15T05:21:11;7.50;99.90
66184;DHT22;52989;48.796;9.806;2022-11-15T05:23:36;7.70;99.90
66184;DHT22;52989;48.796;9.806;2022-11-15T05:26:02;7.50;99.90
66184;DHT22;52989;48.796;9.806;2022-11-15T05:28:28;7.30;99.90
66184;DHT22;52989;48.796;9.806;2022-11-15T05:31:00;7.20;99.90
66184;DHT22;52989;48.796;9.806;2022-11-15T05:33:25;7.20;99.90
66184;DHT22;52989;48.796;9.806;2022-11-15T05:35:54;8.40;99.90
66184;DHT22;52989;48.796;9.806;2022-11-15T05:38:20;7.80;99.90
66184;DHT22;52989;48.796;9.806;2022-11-15T05:40:47;7.50;99.90
66184;DHT22;52989;48.796;9.806;2022-11-15T05:43:12;7.50;99.90
66184;DHT22;52989;48.796;9.806;2022-11-15T05:45:38;7.50;99.90
66184;DHT22;52989;48.796;9.806;2022-11-15T05:48:04;7.40;99.90
66184;DHT22;52989;48.796;9.806;2022-11-15T05:50:31;7.30;99.90
66184;DHT22;52989;48.796;9.806;2022-11-15T05:52:57;7.20;99.90
66184;DHT22;52989;48.796;9.806;2022-11-15T05:55:23;7.10;99.90
66184;DHT22;52989;48.796;9.806;2022-11-15T05:57:48;7.50;99.90
66184;DHT22;52989;48.796;9.806;2022-11-15T06:00:14;7.30;99.90
66184;DHT22;52989;48.796;9.806;2022-11-15T06:02:39;7.30;99.90
66184;DHT22;52989;48.796;9.806;2022-11-15T06:05:05;7.30;99.90
66184;DHT22;52989;48.796;9.806;2022-11-15T06:07:30;7.20;99.90
66184;DHT22;52989;48.796;9.806;2022-11-15T06:09:56;7.70;99.90
66184;DHT22;52989;48.796;9.806;2022-11-15T06:12:21;7.30;99.90
66184;DHT22;52989;48.796;9.806;2022-11-15T06:14:47;7.50;99.90
66184;DHT22;52989;48.796;9.806;2022-11-15T06:17:12;7.70;99.90
66184;DHT22;52989;48.796;9.806;2022-11-15T06:19:38;7.90;99.90
66184;DHT22;52989;48.796;9.806;2022-11-15T06:22:03;7.60;99.90
66184;DHT22;52989;48.796;9.806;2022-11-15T06:24:29;7.30;99.90
66184;DHT22;52989;48.796;9.806;2022-11-15T06:26:54;7.30;99.90
66184;DHT22;52989;48.796;9.806;2022-11-15T06:29:19;7.20;99.90
66184;DHT22;52989;48.796;9.806;2022-11-15T06:31:45;7.10;99.90
66184;DHT22;52989;48.796;9.806;2022-11-15T06:34:10;6.80;99.90
66184;DHT22;52989;48.796;9.806;2022-11-15T06:36:36;6.80;99.90
66184;DHT22;52989;48.796;9.806;2022-11-15T06:39:05;6.80;99.90
66184;DHT22;52989;48.796;9.806;2022-11-15T06:41:33;7.60;99.90
66184;DHT22;52989;48.796;9.806;2022-11-15T06:43:59;7.10;99.90
66184;DHT22;52989;48.796;9.806;2022-11-15T06:46:24;6.80;99.90
66184;DHT22;52989;48.796;9.806;2022-11-15T06:48:50;6.60;99.90
66184;DHT22;52989;48.796;9.806;2022-11-15T06:51:16;6.50;99.90
66184;DHT22;52989;48.796;9.806;2022-11-15T06:53:41;7.00;99.90
66184;DHT22;52989;48.796;9.806;2022-11-15T06:56:07;6.70;99.90
66184;DHT22;52989;48.796;9.806;2022-11-15T06:58:33;6.40;99.90
66184;DHT22;52989;48.796;9.806;2022-11-15T07:01:00;6.40;99.90
66184;DHT22;52989;48.796;9.806;2022-11-15T07:03:26;6.40;99.90
66184;DHT22;52989;48.796;9.806;2022-11-15T07:05:52;6.30;99.90
66184;DHT22;52989;48.796;9.806;2022-11-15T07:08:18;6.40;99.90
66184;DHT22;52989;48.796;9.806;2022-11-15T07:10:44;6.70;99.90
66184;DHT22;52989;48.796;9.806;2022-11-15T07:13:09;6.90;99.90
66184;DHT22;52989;48.796;9.806;2022-11-15T07:15:35;6.90;99.90
66184;DHT22;52989;48.796;9.806;2022-11-15T07:18:01;6.60;99.90
66184;DHT22;52989;48.796;9.806;2022-11-15T07:20:26;6.60;99.90
66184;DHT22;52989;48.796;9.806;2022-11-15T07:22:55;6.60;99.90
66184;DHT22;52989;48.796;9.806;2022-11-15T07:25:24;6.50;99.90
66184;DHT22;52989;48.796;9.806;2022-11-15T07:27:59;6.50;99.90
66184;DHT22;52989;48.796;9.806;2022-11-15T07:30:25;6.70;99.90
66184;DHT22;52989;48.796;9.806;2022-11-15T07:32:54;6.90;99.90
66184;DHT22;52989;48.796;9.806;2022-11-15T07:35:19;7.20;99.90
66184;DHT22;52989;48.796;9.806;2022-11-15T07:37:52;7.40;99.90
66184;DHT22;52989;48.796;9.806;2022-11-15T07:40:17;7.20;99.90
66184;DHT22;52989;48.796;9.806;2022-11-15T07:42:43;7.00;99.90
66184;DHT22;52989;48.796;9.806;2022-11-15T07:45:18;6.80;99.90
66184;DHT22;52989;48.796;9.806;2022-11-15T07:47:46;6.90;99.90
66184;DHT22;52989;48.796;9.806;2022-11-15T07:50:12;6.90;99.90
66184;DHT22;52989;48.796;9.806;2022-11-15T07:52:37;7.00;99.90
66184;DHT22;52989;48.796;9.806;2022-11-15T07:55:03;7.20;99.90
66184;DHT22;52989;48.796;9.806;2022-11-15T07:57:29;7.10;99.90
66184;DHT22;52989;48.796;9.806;2022-11-15T07:59:54;7.20;99.90
66184;DHT22;52989;48.796;9.806;2022-11-15T08:02:20;7.20;99.90
66184;DHT22;52989;48.796;9.806;2022-11-15T08:04:46;7.30;99.90
66184;DHT22;52989;48.796;9.806;2022-11-15T08:07:11;7.50;99.90
66184;DHT22;52989;48.796;9.806;2022-11-15T08:09:36;7.70;99.90
66184;DHT22;52989;48.796;9.806;2022-11-15T08:12:02;7.90;99.90
66184;DHT22;52989;48.796;9.806;2022-11-15T08:14:27;8.40;99.90
66184;DHT22;52989;48.796;9.806;2022-11-15T08:16:54;8.50;99.90
66184;DHT22;52989;48.796;9.806;2022-11-15T08:19:19;8.70;99.90
66184;DHT22;52989;48.796;9.806;2022-11-15T08:21:45;8.50;99.90
66184;DHT22;52989;48.796;9.806;2022-11-15T08:24:10;8.60;99.90
66184;DHT22;52989;48.796;9.806;2022-11-15T08:26:36;8.50;99.90
66184;DHT22;52989;48.796;9.806;2022-11-15T08:29:01;8.70;99.90
66184;DHT22;52989;48.796;9.806;2022-11-15T08:31:27;8.40;99.90
66184;DHT22;52989;48.796;9.806;2022-11-15T08:33:52;8.30;99.90
66184;DHT22;52989;48.796;9.806;2022-11-15T08:36:18;8.40;99.90
66184;DHT22;52989;48.796;9.806;2022-11-15T08:38:43;8.50;99.90
66184;DHT22;52989;48.796;9.806;2022-11-15T08:41:12;8.70;99.90
66184;DHT22;52989;48.796;9.806;2022-11-15T08:43:37;8.70;99.90
66184;DHT22;52989;48.796;9.806;2022-11-15T08:46:03;8.80;99.90
66184;DHT22;52989;48.796;9.806;2022-11-15T08:48:29;9.00;99.90
66184;DHT22;52989;48.796;9.806;2022-11-15T08:50:55;9.30;99.90
66184;DHT22;52989;48.796;9.806;2022-11-15T08:53:21;9.40;99.90
66184;DHT22;52989;48.796;9.806;2022-11-15T08:55:46;9.40;99.90
66184;DHT22;52989;48.796;9.806;2022-11-15T08:58:12;9.50;99.90
66184;DHT22;52989;48.796;9.806;2022-11-15T09:00:37;9.60;99.90
66184;DHT22;52989;48.796;9.806;2022-11-15T09:03:03;9.90;99.90
66184;DHT22;52989;48.796;9.806;2022-11-15T09:05:29;10.40;99.90
66184;DHT22;52989;48.796;9.806;2022-11-15T09:07:55;10.40;99.90
66184;DHT22;52989;48.796;9.806;2022-11-15T09:10:21;10.50;99.90
66184;DHT22;52989;48.796;9.806;2022-11-15T09:12:46;10.40;99.90
66184;DHT22;52989;48.796;9.806;2022-11-15T09:15:14;10.40;99.90
66184;DHT22;52989;48.796;9.806;2022-11-15T09:17:39;10.60;99.90
66184;DHT22;52989;48.796;9.806;2022-11-15T09:20:05;10.70;99.90
66184;DHT22;52989;48.796;9.806;2022-11-15T09:22:31;10.90;99.90
66184;DHT22;52989;48.796;9.806;2022-11-15T09:24:56;11.10;99.90
66184;DHT22;52989;48.796;9.806;2022-11-15T09:27:21;11.20;99.90
66184;DHT22;52989;48.796;9.806;2022-11-15T09:29:47;11.50;99.90
66184;DHT22;52989;48.796;9.806;2022-11-15T09:32:12;11.80;99.90
66184;DHT22;52989;48.796;9.806;2022-11-15T09:34:38;12.10;99.90
66184;DHT22;52989;48.796;9.806;2022-11-15T09:37:03;12.00;99.90
66184;DHT22;52989;48.796;9.806;2022-11-15T09:39:29;11.80;99.90
66184;DHT22;52989;48.796;9.806;2022-11-15T09:42:07;11.90;99.90
66184;DHT22;52989;48.796;9.806;2022-11-15T09:47:20;12.50;99.00
66184;DHT22;52989;48.796;9.806;2022-11-15T09:49:51;12.50;98.70
66184;DHT22;52989;48.796;9.806;2022-11-15T09:52:17;12.60;98.80
66184;DHT22;52989;48.796;9.806;2022-11-15T09:54:46;12.70;98.30
66184;DHT22;52989;48.796;9.806;2022-11-15T09:57:13;12.50;99.10
66184;DHT22;52989;48.796;9.806;2022-11-15T10:02:14;12.50;98.30
66184;DHT22;52989;48.796;9.806;2022-11-15T10:04:43;12.60;98.30
66184;DHT22;52989;48.796;9.806;2022-11-15T10:07:22;12.80;98.10
66184;DHT22;52989;48.796;9.806;2022-11-15T10:10:07;12.90;97.60
66184;DHT22;52989;48.796;9.806;2022-11-15T10:12:36;13.10;97.70
66184;DHT22;52989;48.796;9.806;2022-11-15T10:15:04;13.10;97.60
66184;DHT22;52989;48.796;9.806;2022-11-15T10:22:46;13.20;95.80
66184;DHT22;52989;48.796;9.806;2022-11-15T10:25:17;13.20;95.90
66184;DHT22;52989;48.796;9.806;2022-11-15T10:27:43;13.20;95.10
66184;DHT22;52989;48.796;9.806;2022-11-15T10:30:14;13.20;95.80
66184;DHT22;52989;48.796;9.806;2022-11-15T10:32:40;13.40;95.60
66184;DHT22;52989;48.796;9.806;2022-11-15T10:35:17;13.10;95.60
66184;DHT22;52989;48.796;9.806;2022-11-15T10:37:42;13.10;96.00
66184;DHT22;52989;48.796;9.806;2022-11-15T10:40:23;13.00;96.60
66184;DHT22;52989;48.796;9.806;2022-11-15T10:43:03;13.00;96.30
66184;DHT22;52989;48.796;9.806;2022-11-15T10:45:30;13.10;95.70
66184;DHT22;52989;48.796;9.806;2022-11-15T10:50:36;13.10;95.40
66184;DHT22;52989;48.796;9.806;2022-11-15T10:53:02;13.20;95.10
66184;DHT22;52989;48.796;9.806;2022-11-15T10:55:29;13.30;94.70
66184;DHT22;52989;48.796;9.806;2022-11-15T10:58:06;13.40;94.20
66184;DHT22;52989;48.796;9.806;2022-11-15T11:00:40;13.50;94.20
66184;DHT22;52989;48.796;9.806;2022-11-15T11:06:02;13.60;94.30
66184;DHT22;52989;48.796;9.806;2022-11-15T11:08:28;13.70;94.60
66184;DHT22;52989;48.796;9.806;2022-11-15T11:10:57;13.60;95.50
66184;DHT22;52989;48.796;9.806;2022-11-15T11:13:24;13.70;94.60
66184;DHT22;52989;48.796;9.806;2022-11-15T11:15:59;13.70;94.80
66184;DHT22;52989;48.796;9.806;2022-11-15T11:18:42;13.80;93.20
66184;DHT22;52989;48.796;9.806;2022-11-15T11:21:14;13.90;92.00
66184;DHT22;52989;48.796;9.806;2022-11-15T11:33:57;14.40;91.10
66184;DHT22;52989;48.796;9.806;2022-11-15T11:36:27;14.50;91.10
66184;DHT22;52989;48.796;9.806;2022-11-15T11:41:50;14.40;90.80
66184;DHT22;52989;48.796;9.806;2022-11-15T11:47:09;14.30;90.60
66184;DHT22;52989;48.796;9.806;2022-11-15T11:49:41;14.20;92.50
66184;DHT22;52989;48.796;9.806;2022-11-15T11:52:11;14.40;90.60
66184;DHT22;52989;48.796;9.806;2022-11-15T11:54:40;14.50;90.60
66184;DHT22;52989;48.796;9.806;2022-11-15T11:57:50;14.80;89.20
66184;DHT22;52989;48.796;9.806;2022-11-15T12:02:30;14.90;86.00
66184;DHT22;52989;48.796;9.806;2022-11-15T12:05:00;15.10;85.40
66184;DHT22;52989;48.796;9.806;2022-11-15T12:07:30;15.20;85.20
66184;DHT22;52989;48.796;9.806;2022-11-15T12:12:34;15.20;86.00
66184;DHT22;52989;48.796;9.806;2022-11-15T12:17:35;15.40;81.90
66184;DHT22;52989;48.796;9.806;2022-11-15T12:20:03;15.50;79.30
66184;DHT22;52989;48.796;9.806;2022-11-15T12:30:19;15.30;79.30
66184;DHT22;52989;48.796;9.806;2022-11-15T12:35:25;15.30;82.00
66184;DHT22;52989;48.796;9.806;2022-11-15T12:37:52;15.30;82.50
66184;DHT22;52989;48.796;9.806;2022-11-15T12:45:36;15.10;87.00
66184;DHT22;52989;48.796;9.806;2022-11-15T12:56:08;15.30;81.40
66184;DHT22;52989;48.796;9.806;2022-11-15T12:58:54;15.20;82.10
66184;DHT22;52989;48.796;9.806;2022-11-15T13:04:20;15.00;81.50
66184;DHT22;52989;48.796;9.806;2022-11-15T13:06:50;14.80;83.50
66184;DHT22;52989;48.796;9.806;2022-11-15T13:14:48;14.50;89.20
66184;DHT22;52989;48.796;9.806;2022-11-15T13:17:23;14.40;90.80
66184;DHT22;52989;48.796;9.806;2022-11-15T13:19:52;14.40;91.10
66184;DHT22;52989;48.796;9.806;2022-11-15T13:22:18;14.50;91.90
66184;DHT22;52989;48.796;9.806;2022-11-15T13:25:02;14.40;92.10
66184;DHT22;52989;48.796;9.806;2022-11-15T13:27:28;14.50;90.70
66184;DHT22;52989;48.796;9.806;2022-11-15T13:29:54;14.40;90.30
66184;DHT22;52989;48.796;9.806;2022-11-15T13:32:19;14.40;89.40
66184;DHT22;52989;48.796;9.806;2022-11-15T13:34:46;14.40;90.10
66184;DHT22;52989;48.796;9.806;2022-11-15T13:39:47;14.40;91.90
66184;DHT22;52989;48.796;9.806;2022-11-15T13:42:17;14.40;91.40
66184;DHT22;52989;48.796;9.806;2022-11-15T13:44:55;14.40;90.60
66184;DHT22;52989;48.796;9.806;2022-11-15T13:47:21;14.50;89.10
66184;DHT22;52989;48.796;9.806;2022-11-15T13:49:46;14.50;89.00
66184;DHT22;52989;48.796;9.806;2022-11-15T13:52:13;14.50;87.80
66184;DHT22;52989;48.796;9.806;2022-11-15T13:54:43;14.40;89.70
66184;DHT22;52989;48.796;9.806;2022-11-15T13:57:53;14.40;88.10
66184;DHT22;52989;48.796;9.806;2022-11-15T14:00:00;14.30;87.40
66184;DHT22;52989;48.796;9.806;2022-11-15T14:02:29;14.30;86.40
66184;DHT22;52989;48.796;9.806;2022-11-15T14:04:56;14.30;87.80
66184;DHT22;52989;48.796;9.806;2022-11-15T14:07:24;14.30;87.60
66184;DHT22;52989;48.796;9.806;2022-11-15T14:09:50;14.50;83.60
66184;DHT22;52989;48.796;9.806;2022-11-15T14:12:23;14.50;87.10
66184;DHT22;52989;48.796;9.806;2022-11-15T14:14:49;14.40;87.50
66184;DHT22;52989;48.796;9.806;2022-11-15T14:17:32;14.30;88.40
66184;DHT22;52989;48.796;9.806;2022-11-15T14:19:57;14.20;89.20
66184;DHT22;52989;48.796;9.806;2022-11-15T14:22:24;14.10;90.00
66184;DHT22;52989;48.796;9.806;2022-11-15T14:27:37;14.00;89.50
66184;DHT22;52989;48.796;9.806;2022-11-15T14:30:03;14.00;89.40
66184;DHT22;52989;48.796;9.806;2022-11-15T14:32:29;14.00;90.10
66184;DHT22;52989;48.796;9.806;2022-11-15T14:34:56;13.90;88.80
66184;DHT22;52989;48.796;9.806;2022-11-15T14:37:26;13.90;88.40
66184;DHT22;52989;48.796;9.806;2022-11-15T14:39:52;13.90;88.70
66184;DHT22;52989;48.796;9.806;2022-11-15T14:42:18;13.90;90.20
66184;DHT22;52989;48.796;9.806;2022-11-15T14:44:43;13.80;90.60
66184;DHT22;52989;48.796;9.806;2022-11-15T14:47:09;13.60;90.80
66184;DHT22;52989;48.796;9.806;2022-11-15T14:49:35;13.60;91.10
66184;DHT22;52989;48.796;9.806;2022-11-15T14:52:00;13.60;91.90
66184;DHT22;52989;48.796;9.806;2022-11-15T14:54:26;13.50;92.10
66184;DHT22;52989;48.796;9.806;2022-11-15T14:56:51;13.40;91.80
66184;DHT22;52989;48.796;9.806;2022-11-15T14:59:16;13.40;91.30
66184;DHT22;52989;48.796;9.806;2022-11-15T15:01:42;13.30;92.20
66184;DHT22;52989;48.796;9.806;2022-11-15T15:04:08;13.20;92.50
66184;DHT22;52989;48.796;9.806;2022-11-15T15:06:34;13.10;92.20
66184;DHT22;52989;48.796;9.806;2022-11-15T15:08:59;13.00;92.00
66184;DHT22;52989;48.796;9.806;2022-11-15T15:11:26;13.00;92.50
66184;DHT22;52989;48.796;9.806;2022-11-15T15:13:52;12.90;92.40
66184;DHT22;52989;48.796;9.806;2022-11-15T15:16:18;12.90;92.30
66184;DHT22;52989;48.796;9.806;2022-11-15T15:18:43;12.90;92.30
66184;DHT22;52989;48.796;9.806;2022-11-15T15:21:24;12.80;92.80
66184;DHT22;52989;48.796;9.806;2022-11-15T15:23:51;12.70;93.30
66184;DHT22;52989;48.796;9.806;2022-11-15T15:26:16;12.60;93.30
66184;DHT22;52989;48.796;9.806;2022-11-15T15:28:42;12.70;93.10
66184;DHT22;52989;48.796;9.806;2022-11-15T15:31:08;12.60;93.00
66184;DHT22;52989;48.796;9.806;2022-11-15T15:33:34;12.60;93.10
66184;DHT22;52989;48.796;9.806;2022-11-15T15:36:00;12.60;93.20
66184;DHT22;52989;48.796;9.806;2022-11-15T15:38:25;12.70;93.60
66184;DHT22;52989;48.796;9.806;2022-11-15T15:40:50;12.60;94.40
66184;DHT22;52989;48.796;9.806;2022-11-15T15:43:16;12.50;94.50
66184;DHT22;52989;48.796;9.806;2022-11-15T15:45:41;12.50;94.70
66184;DHT22;52989;48.796;9.806;2022-11-15T15:48:14;12.40;94.90
66184;DHT22;52989;48.796;9.806;2022-11-15T15:50:40;12.40;95.00
66184;DHT22;52989;48.796;9.806;2022-11-15T15:53:08;12.30;94.70
66184;DHT22;52989;48.796;9.806;2022-11-15T15:55:36;12.40;94.90
66184;DHT22;52989;48.796;9.806;2022-11-15T15:58:01;12.30;94.80
66184;DHT22;52989;48.796;9.806;2022-11-15T16:00:27;12.40;94.60
66184;DHT22;52989;48.796;9.806;2022-11-15T16:02:53;12.50;94.10
66184;DHT22;52989;48.796;9.806;2022-11-15T16:05:18;12.50;93.80
66184;DHT22;52989;48.796;9.806;2022-11-15T16:07:44;12.50;93.90
66184;DHT22;52989;48.796;9.806;2022-11-15T16:12:41;12.30;93.30
66184;DHT22;52989;48.796;9.806;2022-11-15T16:15:07;12.40;93.70
66184;DHT22;52989;48.796;9.806;2022-11-15T16:17:33;12.40;94.10
66184;DHT22;52989;48.796;9.806;2022-11-15T16:20:00;12.30;94.60
66184;DHT22;52989;48.796;9.806;2022-11-15T16:22:26;12.10;95.40
66184;DHT22;52989;48.796;9.806;2022-11-15T16:24:51;12.00;95.80
66184;DHT22;52989;48.796;9.806;2022-11-15T16:27:18;11.90;95.40
66184;DHT22;52989;48.796;9.806;2022-11-15T16:29:45;11.90;94.70
66184;DHT22;52989;48.796;9.806;2022-11-15T16:32:11;11.90;94.30
66184;DHT22;52989;48.796;9.806;2022-11-15T16:34:37;11.90;94.10
66184;DHT22;52989;48.796;9.806;2022-11-15T16:37:03;12.00;94.30
66184;DHT22;52989;48.796;9.806;2022-11-15T16:39:28;12.10;93.80
66184;DHT22;52989;48.796;9.806;2022-11-15T16:41:57;12.10;94.10
66184;DHT22;52989;48.796;9.806;2022-11-15T16:44:22;11.90;94.40
66184;DHT22;52989;48.796;9.806;2022-11-15T16:46:49;11.90;94.40
66184;DHT22;52989;48.796;9.806;2022-11-15T16:49:17;12.10;93.90
66184;DHT22;52989;48.796;9.806;2022-11-15T16:51:44;12.00;94.20
66184;DHT22;52989;48.796;9.806;2022-11-15T16:54:11;12.00;94.10
66184;DHT22;52989;48.796;9.806;2022-11-15T16:56:36;11.90;94.50
66184;DHT22;52989;48.796;9.806;2022-11-15T16:59:02;11.70;95.10
66184;DHT22;52989;48.796;9.806;2022-11-15T17:01:32;11.70;95.20
66184;DHT22;52989;48.796;9.806;2022-11-15T17:03:58;11.80;95.30
66184;DHT22;52989;48.796;9.806;2022-11-15T17:06:24;11.80;95.50
66184;DHT22;52989;48.796;9.806;2022-11-15T17:08:49;11.70;96.10
66184;DHT22;52989;48.796;9.806;2022-11-15T17:11:19;11.80;95.30
66184;DHT22;52989;48.796;9.806;2022-11-15T17:13:45;11.70;96.10
66184;DHT22;52989;48.796;9.806;2022-11-15T17:16:12;11.80;95.00
66184;DHT22;52989;48.796;9.806;2022-11-15T17:18:38;11.70;96.10
66184;DHT22;52989;48.796;9.806;2022-11-15T17:21:05;11.60;96.20